createdAt,value
2022-11-03T00:00:57.167Z,2.73
2022-11-03T00:03:25.258Z,2.43
2022-11-03T00:06:08.439Z,2.90
2022-11-03T00:08:38.890Z,2.77
2022-11-03T00:11:09.621Z,2.40
2022-11-03T00:13:41.124Z,2.40
2022-11-03T00:16:10.454Z,2.47
2022-11-03T00:18:38.652Z,1.83
2022-11-03T00:21:08.435Z,2.10
2022-11-03T00:23:38.464Z,3.03
2022-11-03T00:26:12.287Z,2.40
2022-11-03T00:28:42.960Z,2.70
2022-11-03T00:31:12.647Z,2.33
2022-11-03T00:33:42.260Z,2.73
2022-11-03T00:36:13.789Z,2.20
2022-11-03T00:38:42.413Z,2.40
2022-11-03T00:41:11.907Z,2.23
2022-11-03T00:43:41.865Z,2.47
2022-11-03T00:46:10.931Z,2.30
2022-11-03T00:48:39.192Z,2.30
2022-11-03T00:51:10.398Z,2.27
2022-11-03T00:53:40.239Z,2.00
2022-11-03T00:56:10.859Z,2.30
2022-11-03T00:58:38.984Z,1.97
2022-11-03T01:01:11.672Z,2.37
2022-11-03T01:03:41.205Z,2.90
2022-11-03T01:06:27.924Z,2.50
2022-11-03T01:08:56.227Z,2.47
2022-11-03T01:11:43.114Z,2.27
2022-11-03T01:14:11.789Z,2.17
2022-11-03T01:16:41.627Z,3.13
2022-11-03T01:19:10.532Z,2.50
2022-11-03T01:21:38.675Z,2.97
2022-11-03T01:24:07.201Z,2.03
2022-11-03T01:26:35.441Z,2.90
2022-11-03T01:44:37.462Z,2.47
2022-11-03T01:47:14.469Z,3.20
2022-11-03T01:49:47.017Z,1.77
2022-11-03T01:52:20.795Z,2.17
2022-11-03T01:54:54.648Z,2.10
2022-11-03T01:57:28.304Z,2.30
2022-11-03T01:59:59.745Z,2.20
2022-11-03T02:02:28.687Z,2.43
2022-11-03T02:05:01.765Z,1.97
2022-11-03T02:07:35.195Z,1.90
2022-11-03T02:10:03.451Z,2.73
2022-11-03T02:12:32.230Z,2.00
2022-11-03T02:15:06.291Z,2.10
2022-11-03T02:17:35.483Z,2.53
2022-11-03T02:20:06.895Z,2.27
2022-11-03T02:23:00.447Z,2.33
2022-11-03T02:25:41.451Z,2.20
2022-11-03T02:28:09.668Z,2.07
2022-11-03T02:30:43.215Z,1.90
2022-11-03T02:33:21.597Z,2.00
2022-11-03T02:35:54.287Z,2.23
2022-11-03T02:38:25.665Z,2.30
2022-11-03T02:40:56.697Z,2.13
2022-11-03T02:43:26.550Z,2.27
2022-11-03T02:45:56.556Z,2.10
2022-11-03T02:48:24.736Z,2.33
2022-11-03T02:50:53.038Z,2.20
2022-11-03T02:53:21.291Z,2.60
2022-11-03T02:55:59.270Z,2.23
2022-11-03T02:58:32.296Z,2.47
2022-11-03T03:06:24.705Z,2.60
2022-11-03T03:08:57.341Z,2.00
2022-11-03T03:11:38.804Z,2.43
2022-11-03T03:14:13.223Z,2.53
2022-11-03T03:16:51.167Z,1.97
2022-11-03T03:19:33.950Z,2.10
2022-11-03T03:22:09.757Z,2.43
2022-11-03T03:24:44.521Z,2.33
2022-11-03T03:27:17.325Z,2.20
2022-11-03T03:29:50.937Z,2.20
2022-11-03T03:32:23.665Z,2.03
2022-11-03T03:34:53.594Z,1.70
2022-11-03T03:37:24.305Z,2.10
2022-11-03T03:39:56.303Z,3.10
2022-11-03T03:42:28.743Z,2.13
2022-11-03T03:44:58.143Z,2.13
2022-11-03T03:47:30.100Z,2.53
2022-11-03T03:49:58.729Z,1.80
2022-11-03T03:52:27.699Z,2.23
2022-11-03T03:54:56.875Z,2.03
2022-11-03T03:57:28.457Z,2.40
2022-11-03T03:59:56.546Z,1.77
2022-11-03T04:02:24.735Z,1.67
2022-11-03T04:04:52.865Z,2.37
2022-11-03T04:07:42.597Z,2.57
2022-11-03T04:10:11.974Z,2.40
2022-11-03T04:13:01.247Z,1.90
2022-11-03T04:15:46.813Z,2.07
2022-11-03T04:18:32.369Z,2.80
2022-11-03T04:21:17.967Z,2.40
2022-11-03T04:23:46.201Z,1.80
2022-11-03T04:26:15.755Z,1.67
2022-11-03T04:28:46.188Z,2.33
2022-11-03T04:31:15.562Z,2.33
2022-11-03T04:33:44.127Z,2.07
2022-11-03T04:36:20.046Z,2.30
2022-11-03T04:38:48.875Z,2.10
2022-11-03T04:41:19.541Z,2.10
2022-11-03T04:43:49.584Z,2.40
2022-11-03T04:46:22.376Z,2.27
2022-11-03T04:48:51.394Z,2.70
2022-11-03T04:51:23.590Z,2.00
2022-11-03T04:53:54.338Z,1.63
2022-11-03T04:56:24.667Z,1.80
2022-11-03T04:58:55.367Z,2.40
2022-11-03T05:01:25.129Z,1.57
2022-11-03T05:03:54.774Z,2.07
2022-11-03T05:06:24.830Z,2.67
2022-11-03T05:08:56.653Z,2.43
2022-11-03T05:11:32.025Z,1.97
2022-11-03T05:14:04.420Z,1.83
2022-11-03T05:16:33.814Z,2.30
2022-11-03T05:19:01.916Z,2.10
2022-11-03T05:21:30.404Z,2.53
2022-11-03T05:24:03.709Z,2.20
2022-11-03T05:26:35.337Z,2.23
2022-11-03T05:29:10.790Z,2.47
2022-11-03T05:31:41.857Z,2.10
2022-11-03T05:34:33.834Z,2.00
2022-11-03T05:37:09.279Z,2.50
2022-11-03T05:39:39.397Z,2.00
2022-11-03T05:42:26.522Z,1.93
2022-11-03T05:44:56.364Z,2.00
2022-11-03T05:47:27.053Z,2.60
2022-11-03T05:49:57.722Z,2.13
2022-11-03T05:52:27.978Z,2.10
2022-11-03T05:54:59.702Z,2.07
2022-11-03T05:57:30.430Z,2.43
2022-11-03T06:00:00.240Z,3.23
2022-11-03T06:02:38.681Z,2.00
2022-11-03T06:08:47.865Z,2.07
2022-11-03T06:11:26.586Z,2.33
2022-11-03T06:13:56.684Z,2.20
2022-11-03T06:16:38.441Z,1.90
2022-11-03T06:19:26.705Z,1.73
2022-11-03T06:21:58.185Z,1.90
2022-11-03T06:24:31.049Z,2.30
2022-11-03T06:26:59.502Z,2.30
2022-11-03T06:29:27.739Z,2.30
2022-11-03T06:31:58.550Z,2.20
2022-11-03T06:34:38.243Z,1.70
2022-11-03T06:37:25.669Z,2.50
2022-11-03T06:40:01.139Z,1.67
2022-11-03T06:42:33.174Z,2.30
2022-11-03T06:45:10.479Z,2.10
2022-11-03T06:47:42.032Z,1.87
2022-11-03T06:50:23.112Z,2.17
2022-11-03T06:52:51.577Z,2.13
2022-11-03T06:55:27.526Z,1.57
2022-11-03T06:57:59.744Z,1.83
2022-11-03T07:00:35.346Z,2.40
2022-11-03T07:03:14.394Z,2.07
2022-11-03T07:05:43.006Z,2.07
2022-11-03T07:08:24.012Z,2.40
2022-11-03T07:10:58.374Z,1.93
2022-11-03T07:13:30.225Z,2.27
2022-11-03T07:15:58.306Z,2.60
2022-11-03T07:18:31.855Z,3.00
2022-11-03T07:21:07.528Z,2.30
2022-11-03T07:23:35.769Z,2.37
2022-11-03T07:26:04.252Z,1.90
2022-11-03T07:28:36.493Z,2.00
2022-11-03T07:31:16.571Z,2.43
2022-11-03T07:33:46.843Z,2.77
2022-11-03T07:36:19.817Z,2.17
2022-11-03T07:38:51.367Z,2.40
2022-11-03T07:41:22.028Z,2.30
2022-11-03T07:43:55.717Z,2.10
2022-11-03T07:46:24.979Z,2.83
2022-11-03T07:48:57.353Z,2.63
2022-11-03T07:51:27.329Z,2.10
2022-11-03T07:54:00.114Z,2.10
2022-11-03T07:56:30.214Z,2.17
2022-11-03T07:59:02.506Z,2.03
2022-11-03T08:01:32.447Z,2.10
2022-11-03T08:04:05.563Z,2.30
2022-11-03T08:06:33.913Z,2.80
2022-11-03T08:09:02.077Z,2.20
2022-11-03T08:11:30.244Z,1.77
2022-11-03T08:13:58.675Z,2.40
2022-11-03T08:16:26.760Z,2.53
2022-11-03T08:18:54.807Z,2.60
2022-11-03T08:21:24.481Z,2.00
2022-11-03T08:23:52.773Z,2.20
2022-11-03T08:26:23.224Z,2.40
2022-11-03T08:28:52.245Z,2.50
2022-11-03T08:31:20.295Z,4.67
2022-11-03T08:33:48.451Z,2.30
2022-11-03T08:36:16.500Z,2.10
2022-11-03T08:38:45.945Z,2.67
2022-11-03T08:41:14.022Z,2.47
2022-11-03T08:43:42.136Z,2.40
2022-11-03T08:46:17.134Z,2.20
2022-11-03T08:48:45.935Z,2.20
2022-11-03T08:51:14.877Z,2.03
2022-11-03T08:53:43.639Z,2.10
2022-11-03T08:56:15.019Z,1.90
2022-11-03T08:58:44.541Z,2.83
2022-11-03T09:01:12.726Z,2.10
2022-11-03T09:03:41.006Z,2.00
2022-11-03T09:06:09.676Z,2.90
2022-11-03T09:11:27.430Z,2.50
2022-11-03T09:13:55.761Z,2.30
2022-11-03T09:16:23.970Z,2.13
2022-11-03T09:18:52.043Z,2.00
2022-11-03T09:21:20.050Z,2.17
2022-11-03T09:23:48.132Z,2.17
2022-11-03T09:26:16.248Z,2.23
2022-11-03T09:28:45.671Z,2.80
2022-11-03T09:31:14.228Z,2.00
2022-11-03T09:33:42.329Z,2.53
2022-11-03T09:36:10.668Z,2.40
2022-11-03T09:38:38.904Z,2.53
2022-11-03T09:41:18.628Z,2.40
2022-11-03T09:43:59.302Z,2.07
2022-11-03T09:46:29.668Z,2.47
2022-11-03T09:48:57.949Z,1.93
2022-11-03T09:51:28.262Z,1.90
2022-11-03T09:53:59.000Z,1.70
2022-11-03T09:56:27.932Z,1.87
2022-11-03T09:58:57.676Z,2.53
2022-11-03T10:01:25.928Z,1.50
2022-11-03T10:03:57.746Z,2.30
2022-11-03T10:06:25.812Z,1.70
2022-11-03T10:08:54.094Z,2.00
2022-11-03T10:11:22.608Z,1.73
2022-11-03T10:13:53.914Z,1.40
2022-11-03T10:16:26.115Z,1.80
2022-11-03T10:18:54.396Z,1.70
2022-11-03T10:21:28.120Z,2.30
2022-11-03T10:23:56.222Z,2.03
2022-11-03T10:26:24.581Z,1.70
2022-11-03T10:29:00.269Z,1.77
2022-11-03T10:31:35.931Z,1.67
2022-11-03T10:34:04.774Z,1.70
2022-11-03T10:36:34.373Z,1.63
2022-11-03T10:39:26.759Z,2.10
2022-11-03T10:41:59.468Z,1.67
2022-11-03T10:44:29.230Z,1.70
2022-11-03T10:47:00.395Z,1.73
2022-11-03T10:49:30.524Z,1.80
2022-11-03T10:52:09.328Z,1.60
2022-11-03T10:54:38.174Z,1.87
2022-11-03T10:57:07.024Z,1.73
2022-11-03T10:59:38.090Z,2.07
2022-11-03T11:02:17.217Z,2.10
2022-11-03T11:04:46.932Z,1.87
2022-11-03T11:07:20.980Z,1.90
2022-11-03T11:09:49.229Z,1.63
2022-11-03T11:12:19.644Z,2.07
2022-11-03T11:14:58.284Z,1.57
2022-11-03T11:17:45.063Z,1.77
2022-11-03T11:20:46.166Z,1.67
2022-11-03T11:23:52.538Z,1.70
2022-11-03T11:26:35.740Z,2.40
2022-11-03T11:29:36.967Z,2.10
2022-11-03T11:32:49.657Z,2.50
2022-11-03T11:36:00.142Z,1.63
2022-11-03T11:38:56.543Z,1.50
2022-11-03T11:41:58.109Z,2.13
2022-11-03T11:45:03.521Z,1.43
2022-11-03T11:47:51.038Z,2.10
2022-11-03T11:50:29.318Z,2.30
2022-11-03T11:53:14.022Z,1.90
2022-11-03T11:55:54.631Z,1.83
2022-11-03T11:58:30.991Z,1.63
2022-11-03T12:01:03.404Z,1.93
2022-11-03T12:07:41.839Z,1.50
2022-11-03T12:10:10.261Z,1.80
2022-11-03T12:12:38.276Z,2.80
2022-11-03T12:15:07.101Z,2.23
2022-11-03T12:17:37.730Z,2.10
2022-11-03T12:20:36.552Z,1.83
2022-11-03T12:23:06.083Z,1.80
2022-11-03T12:25:37.171Z,2.30
2022-11-03T12:28:05.690Z,2.13
2022-11-03T12:30:39.500Z,1.77
2022-11-03T12:33:08.480Z,2.37
2022-11-03T12:35:36.909Z,1.30
2022-11-03T12:38:06.540Z,1.90
2022-11-03T12:40:34.708Z,2.07
2022-11-03T12:43:02.778Z,1.97
2022-11-03T12:45:30.836Z,1.57
2022-11-03T12:47:58.912Z,2.00
2022-11-03T12:50:27.396Z,2.33
2022-11-03T12:52:55.514Z,1.90
2022-11-03T12:55:25.190Z,1.77
2022-11-03T12:57:53.375Z,1.60
2022-11-03T13:00:21.607Z,1.60
2022-11-03T13:02:49.728Z,1.40
2022-11-03T13:05:17.918Z,1.67
2022-11-03T13:07:46.088Z,1.73
2022-11-03T13:10:14.227Z,2.20
2022-11-03T13:12:45.291Z,2.00
2022-11-03T13:15:15.849Z,1.30
2022-11-03T13:18:12.745Z,1.27
2022-11-03T13:20:32.549Z,1.70
2022-11-03T13:23:00.729Z,1.43
2022-11-03T13:25:29.441Z,1.53
2022-11-03T13:27:59.597Z,1.10
2022-11-03T13:30:28.626Z,1.30
2022-11-03T13:32:56.959Z,1.40
2022-11-03T13:35:25.238Z,1.50
2022-11-03T13:37:53.475Z,1.53
2022-11-03T13:43:11.730Z,1.30
2022-11-03T13:45:40.073Z,1.53
2022-11-03T13:50:56.928Z,1.60
2022-11-03T13:56:20.754Z,1.70
2022-11-03T14:01:41.100Z,2.23
2022-11-03T14:06:58.513Z,1.57
2022-11-03T14:09:26.759Z,1.63
2022-11-03T14:12:12.034Z,2.03
2022-11-03T14:14:41.447Z,1.50
2022-11-03T14:17:09.487Z,1.60
2022-11-03T14:19:43.777Z,1.60
2022-11-03T14:22:14.292Z,1.70
2022-11-03T14:24:42.355Z,1.20
2022-11-03T14:27:10.603Z,2.27
2022-11-03T14:29:38.753Z,1.33
2022-11-03T14:32:08.440Z,1.70
2022-11-03T14:34:36.701Z,1.50
2022-11-03T14:37:04.964Z,1.80
2022-11-03T14:39:33.218Z,1.60
2022-11-03T14:42:06.566Z,1.40
2022-11-03T14:44:36.411Z,1.60
2022-11-03T14:47:05.982Z,1.33
2022-11-03T14:49:36.206Z,1.60
2022-11-03T14:52:07.365Z,1.60
2022-11-03T14:54:36.636Z,1.33
2022-11-03T14:57:05.544Z,1.57
2022-11-03T14:59:34.936Z,1.70
2022-11-03T15:02:04.485Z,1.80
2022-11-03T15:04:32.750Z,1.90
2022-11-03T15:07:02.278Z,1.40
2022-11-03T15:09:30.449Z,2.00
2022-11-03T15:11:58.502Z,2.20
2022-11-03T15:14:26.658Z,2.07
2022-11-03T15:16:54.758Z,1.60
2022-11-03T15:19:22.803Z,2.10
2022-11-03T15:21:50.887Z,2.03
2022-11-03T15:27:08.386Z,1.77
2022-11-03T15:29:37.644Z,1.57
2022-11-03T15:32:06.858Z,2.30
2022-11-03T15:34:34.908Z,1.90
2022-11-03T15:37:02.977Z,1.90
2022-11-03T15:39:32.653Z,2.07
2022-11-03T15:42:00.680Z,1.97
2022-11-03T15:44:28.778Z,1.80
2022-11-03T15:46:56.853Z,2.13
2022-11-03T15:49:24.972Z,2.00
2022-11-03T15:51:53.040Z,2.27
2022-11-03T15:54:21.087Z,1.70
2022-11-03T15:56:50.539Z,1.90
2022-11-03T15:59:19.080Z,2.37
2022-11-03T16:01:47.366Z,2.10
2022-11-03T16:04:16.305Z,2.33
2022-11-03T16:07:06.876Z,2.00
2022-11-03T16:09:32.459Z,2.10
2022-11-03T16:12:02.829Z,2.40
2022-11-03T16:14:31.355Z,2.10
2022-11-03T16:16:59.653Z,2.40
2022-11-03T16:19:27.876Z,3.00
2022-11-03T16:21:55.957Z,2.17
2022-11-03T16:24:29.600Z,2.50
2022-11-03T16:27:04.791Z,2.23
2022-11-03T16:29:32.960Z,2.43
2022-11-03T16:32:01.025Z,2.37
2022-11-03T16:34:29.188Z,2.17
2022-11-03T16:36:57.390Z,2.63
2022-11-03T16:39:25.507Z,2.30
2022-11-03T16:41:54.883Z,2.50
2022-11-03T16:44:24.377Z,3.20
2022-11-03T16:46:52.517Z,2.60
2022-11-03T16:49:20.655Z,3.57
2022-11-03T16:51:48.840Z,2.90
2022-11-03T16:54:16.914Z,2.90
2022-11-03T16:56:46.166Z,2.53
2022-11-03T16:59:15.654Z,2.67
2022-11-03T17:01:45.132Z,2.60
2022-11-03T17:04:13.257Z,3.00
2022-11-03T17:06:41.374Z,3.43
2022-11-03T17:09:10.109Z,4.60
2022-11-03T17:11:38.215Z,3.53
2022-11-03T17:14:08.826Z,3.30
2022-11-03T17:16:36.915Z,3.77
2022-11-03T17:19:06.403Z,3.40
2022-11-03T17:21:34.438Z,3.33
2022-11-03T17:24:03.882Z,3.20
2022-11-03T17:26:42.914Z,3.87
2022-11-03T17:29:17.282Z,4.10
2022-11-03T17:31:45.414Z,4.73
2022-11-03T17:34:14.979Z,4.10
2022-11-03T17:36:43.193Z,4.37
2022-11-03T17:39:16.766Z,4.77
2022-11-03T17:41:45.023Z,4.77
2022-11-03T17:44:13.914Z,5.10
2022-11-03T17:46:42.260Z,5.03
2022-11-03T17:49:10.562Z,4.83
2022-11-03T17:51:43.818Z,5.00
2022-11-03T17:54:17.120Z,4.97
2022-11-03T17:56:45.544Z,4.87
2022-11-03T17:59:15.870Z,5.73
2022-11-03T18:01:45.337Z,5.07
2022-11-03T18:06:49.314Z,5.03
2022-11-03T18:09:17.429Z,4.77
2022-11-03T18:12:02.909Z,5.50
2022-11-03T18:14:31.311Z,5.83
2022-11-03T18:16:59.726Z,6.17
2022-11-03T18:19:28.055Z,5.97
2022-11-03T18:21:59.040Z,5.47
2022-11-03T18:24:27.884Z,5.07
2022-11-03T18:26:56.126Z,5.97
2022-11-03T18:29:24.401Z,5.67
2022-11-03T18:31:52.694Z,5.80
2022-11-03T18:34:25.426Z,5.50
2022-11-03T18:36:53.654Z,5.37
2022-11-03T18:39:26.310Z,5.97
2022-11-03T18:41:54.732Z,5.43
2022-11-03T18:44:24.380Z,5.67
2022-11-03T18:46:55.611Z,5.27
2022-11-03T18:49:25.056Z,5.90
2022-11-03T18:52:02.493Z,6.37
2022-11-03T18:54:35.257Z,5.40
2022-11-03T18:57:04.270Z,5.50
2022-11-03T18:59:37.129Z,5.23
2022-11-03T19:02:08.504Z,4.57
2022-11-03T19:04:36.975Z,4.87
2022-11-03T19:07:08.329Z,5.60
2022-11-03T19:09:38.033Z,4.83
2022-11-03T19:12:06.913Z,4.80
2022-11-03T19:14:39.018Z,5.47
2022-11-03T19:17:23.015Z,5.07
2022-11-03T19:19:52.465Z,4.83
2022-11-03T19:22:22.175Z,4.10
2022-11-03T19:24:51.766Z,3.97
2022-11-03T19:27:23.175Z,4.30
2022-11-03T19:29:51.281Z,4.60
2022-11-03T19:32:24.461Z,4.03
2022-11-03T19:34:57.576Z,4.20
2022-11-03T19:37:28.777Z,4.67
2022-11-03T19:40:02.064Z,4.80
2022-11-03T19:42:31.284Z,4.33
2022-11-03T19:45:00.658Z,4.07
2022-11-03T19:47:32.696Z,4.00
2022-11-03T19:50:02.871Z,3.60
2022-11-03T19:52:32.609Z,3.43
2022-11-03T19:55:05.726Z,3.83
2022-11-03T19:57:34.160Z,4.47
2022-11-03T20:00:03.441Z,4.43
2022-11-03T20:02:31.874Z,4.73
2022-11-03T20:05:00.267Z,3.90
2022-11-03T20:07:31.873Z,3.90
2022-11-03T20:10:03.529Z,4.20
2022-11-03T20:12:32.589Z,3.27
2022-11-03T20:15:00.800Z,3.50
2022-11-03T20:17:28.955Z,3.17
2022-11-03T20:19:57.120Z,3.90
2022-11-03T20:22:30.212Z,3.60
2022-11-03T20:25:01.689Z,3.43
2022-11-03T20:27:31.265Z,3.73
2022-11-03T20:29:59.572Z,3.60
2022-11-03T20:32:28.025Z,3.50
2022-11-03T20:34:56.488Z,3.17
2022-11-03T20:37:24.807Z,3.33
2022-11-03T20:39:53.754Z,3.17
2022-11-03T20:42:26.777Z,3.30
2022-11-03T20:44:56.340Z,3.30
2022-11-03T20:47:24.754Z,3.67
2022-11-03T20:49:53.216Z,3.63
2022-11-03T20:52:21.509Z,3.27
2022-11-03T20:54:51.149Z,3.87
2022-11-03T20:57:19.678Z,3.57
2022-11-03T20:59:48.045Z,4.10
2022-11-03T21:02:18.236Z,3.90
2022-11-03T21:04:46.598Z,4.13
2022-11-03T21:07:15.369Z,4.43
2022-11-03T21:09:43.740Z,4.13
2022-11-03T21:12:15.232Z,3.90
2022-11-03T21:15:00.719Z,3.80
2022-11-03T21:17:47.615Z,3.77
2022-11-03T21:20:16.147Z,4.17
2022-11-03T21:22:53.835Z,4.03
2022-11-03T21:25:24.220Z,4.10
2022-11-03T21:27:53.918Z,4.53
2022-11-03T21:30:23.016Z,5.63
2022-11-03T21:32:52.567Z,4.67
2022-11-03T21:35:22.353Z,4.40
2022-11-03T21:37:50.539Z,5.70
2022-11-03T21:40:19.073Z,4.87
2022-11-03T21:43:04.493Z,5.43
2022-11-03T21:45:33.070Z,5.63
2022-11-03T21:48:20.291Z,5.50
2022-11-03T21:50:48.917Z,5.63
2022-11-03T21:53:16.960Z,5.80
2022-11-03T21:55:47.777Z,5.70
2022-11-03T21:58:15.885Z,5.40
2022-11-03T22:00:43.995Z,5.30
2022-11-03T22:03:13.595Z,6.20
2022-11-03T22:05:41.758Z,5.17
2022-11-03T22:08:10.184Z,5.53
2022-11-03T22:10:40.204Z,5.60
2022-11-03T22:13:08.510Z,5.17
2022-11-03T22:15:54.515Z,5.37
2022-11-03T22:18:24.428Z,5.17
2022-11-03T22:21:09.814Z,4.17
2022-11-03T22:24:10.071Z,3.77
2022-11-03T22:26:56.462Z,2.70
2022-11-03T22:29:42.135Z,2.50
2022-11-03T22:32:14.946Z,2.20
2022-11-03T22:35:01.905Z,2.43
2022-11-03T22:40:14.473Z,1.67
2022-11-03T22:43:00.144Z,1.63
2022-11-03T22:45:45.413Z,1.83
2022-11-03T22:48:13.829Z,2.33
2022-11-03T22:50:43.311Z,1.73
2022-11-03T22:53:28.858Z,1.80
2022-11-03T22:55:56.906Z,1.83
2022-11-03T22:58:29.412Z,2.20
2022-11-03T23:00:58.603Z,1.93
2022-11-03T23:03:26.727Z,1.90
2022-11-03T23:06:01.241Z,2.17
2022-11-03T23:08:31.457Z,2.27
2022-11-03T23:11:05.791Z,2.50
2022-11-03T23:13:33.927Z,2.60
2022-11-03T23:16:02.242Z,2.40
2022-11-03T23:18:47.438Z,3.23
2022-11-03T23:21:16.883Z,3.73
2022-11-03T23:24:01.978Z,4.10
2022-11-03T23:26:30.048Z,4.00
2022-11-03T23:28:58.147Z,4.27
2022-11-03T23:31:26.257Z,4.97
2022-11-03T23:33:54.358Z,4.53
2022-11-03T23:36:23.885Z,4.57
2022-11-03T23:38:51.925Z,5.07
2022-11-03T23:41:20.637Z,4.87
2022-11-03T23:43:48.783Z,6.00
2022-11-03T23:46:35.708Z,6.53
2022-11-03T23:49:04.195Z,6.77
2022-11-03T23:51:35.120Z,7.90
2022-11-03T23:54:04.462Z,10.40
2022-11-03T23:56:53.593Z,10.70
2022-11-03T23:59:22.418Z,10.13
